Urb Alamar, Puerto Rico
Current Conditions -  °F | °C
As of 2:53 AM on Wednesday 26 Nov 2014 (Local Time) from TJNR Reporting Station
Clear Clear  
Wind Chill: 79°   Ceiling: Unl
Heat Index: 82°   Visibility: 10mi
Dew Point: 70°   Wind: 7mph
Humidity: 74%   Direction: 80°E
Pressure: 29.99"   Gusts: NA
Location:  18.3744°N, 65.7168°W
Report Text: TJNR 260653Z AUTO 08006KT 10SM CLR 26/21 A2999 RMK AO2 SLP155 T02610211 $
Loading
Personal Weather Stations






























Interactive Weather Map New forecast layout! Learn more

10-Day Weather Forecast

Advertisements
Track Severe Weather on mobile